Mc Lain, Mississippi
Current Conditions -  °F | °C
As of 12:53 AM on Saturday 20 Dec 2014 (Local Time) from KHBG Reporting Station
Light Rain Light Rain  
Wind Chill: 45°   Ceiling: 700
Heat Index: 47°   Visibility: 5mi
Dew Point: 45°   Wind: 5mph
Humidity: 93%   Direction: 360°N
Pressure: 30.14"   Gusts: NA
Location:  31.0532°N, 88.8084°W
Report Text: KHBG 200653Z AUTO 36004KT 5SM -RA BR OVC007 08/07 A3014 RMK AO2 SLP207 P0003 T00830072
Loading
Personal Weather Stations






























Interactive Weather Map New forecast layout! Learn more

10-Day Weather Forecast

Advertisements
Track Severe Weather on mobile